Time;durP1;ratioP1;P1;durP2;ratioP2;P2;SDS_P1;SDS_P2;PMS_P1;PMS_P2;Temp;Humidity;BMP_temperature;BMP_pressure;BME280_temperature;BME280_humidity;BME280_pressure;Samples;Min_cycle;Max_cycle;Signal;HPM_P1;HPM_P2
2022/09/17 00:00:41;;;;;;;5.65;4.12;;;;;;;12.84;77.66;98759.25;1806363;78;20984;-71
2022/09/17 00:03:08;;;;;;;3.87;3.40;;;;;;;12.81;77.77;98753.02;1828892;78;21202;-70
2022/09/17 00:05:37;;;;;;;4.22;3.58;;;;;;;12.90;77.58;98750.45;1815058;77;21024;-73
2022/09/17 00:08:07;;;;;;;7.00;4.22;;;;;;;12.92;77.38;98743.06;1806213;76;21061;-73
2022/09/17 00:10:37;;;;;;;6.58;4.47;;;;;;;12.89;77.32;98745.31;1812436;78;21547;-69
2022/09/17 00:13:04;;;;;;;8.40;4.17;;;;;;;12.87;77.35;98738.05;1761795;80;20987;-70
2022/09/17 00:15:31;;;;;;;6.42;4.30;;;;;;;12.87;77.42;98736.19;1828859;78;21261;-70
2022/09/17 00:17:57;;;;;;;7.28;4.17;;;;;;;12.87;77.45;98726.86;1829612;78;21007;-71
2022/09/17 00:20:26;;;;;;;6.67;4.80;;;;;;;12.95;77.38;98721.30;1828903;76;21092;-72
2022/09/17 00:22:53;;;;;;;8.10;4.92;;;;;;;13.09;77.18;98720.75;1814747;77;21241;-69
2022/09/17 00:25:19;;;;;;;6.65;4.45;;;;;;;13.12;77.20;98718.20;1826404;78;20993;-71
2022/09/17 00:27:46;;;;;;;6.78;5.95;;;;;;;13.11;77.20;98718.69;1829213;76;21215;-71
2022/09/17 00:30:13;;;;;;;9.08;5.35;;;;;;;13.11;77.34;98722.69;1760617;80;21028;-71
2022/09/17 00:32:39;;;;;;;12.05;5.08;;;;;;;13.05;77.30;98718.20;1775579;79;21025;-71
2022/09/17 00:35:06;;;;;;;5.97;4.50;;;;;;;13.08;77.46;98724.98;1769211;79;21100;-69
2022/09/17 00:37:34;;;;;;;7.20;4.97;;;;;;;13.13;77.49;98724.66;1827999;78;21115;-71
2022/09/17 00:40:01;;;;;;;7.08;5.53;;;;;;;13.21;77.23;98723.58;1828566;77;21234;-72
2022/09/17 00:42:28;;;;;;;8.25;5.45;;;;;;;13.17;77.38;98723.70;1829783;77;21024;-72
2022/09/17 00:44:56;;;;;;;10.98;5.37;;;;;;;13.10;77.64;98738.41;1830218;77;21071;-72
2022/09/17 00:47:33;;;;;;;5.83;4.80;;;;;;;13.02;77.90;98742.63;1828630;77;21076;-72
2022/09/17 00:50:24;;;;;;;7.20;4.65;;;;;;;12.95;78.30;98748.48;1829037;77;21608;-71
2022/09/17 00:53:03;;;;;;;12.63;6.15;;;;;;;12.98;78.33;98753.41;1760012;79;21330;-71
2022/09/17 00:55:40;;;;;;;8.58;5.50;;;;;;;12.89;78.71;98744.80;1815734;79;21001;-71
2022/09/17 00:58:09;;;;;;;7.53;5.78;;;;;;;12.79;79.15;98738.55;1810437;77;21042;-72
2022/09/17 01:00:36;;;;;;;7.10;5.65;;;;;;;12.72;79.59;98727.08;1823834;78;21071;-69
2022/09/17 01:03:03;;;;;;;6.65;5.15;;;;;;;12.68;79.82;98740.51;1821195;78;21012;-70
2022/09/17 01:05:45;;;;;;;10.60;5.80;;;;;;;12.73;79.67;98743.39;1810723;77;21237;-71
2022/09/17 01:08:39;;;;;;;11.12;6.30;;;;;;;12.79;79.59;98751.87;1739015;79;21080;-73
2022/09/17 01:11:38;;;;;;;7.60;5.70;;;;;;;12.73;79.75;98762.04;1797345;77;21026;-73
2022/09/17 01:14:19;;;;;;;7.95;5.70;;;;;;;12.67;80.18;98768.69;1791012;78;21077;-71
2022/09/17 01:17:16;;;;;;;10.32;6.05;;;;;;;12.62;80.46;98765.84;1822666;78;21021;-71
2022/09/17 01:20:27;;;;;;;9.23;6.00;;;;;;;12.67;80.27;98752.21;1742069;80;21267;-72
2022/09/17 01:23:36;;;;;;;6.62;5.60;;;;;;;12.62;80.40;98748.00;1752563;79;21053;-72
2022/09/17 01:26:26;;;;;;;8.48;6.28;;;;;;;12.58;80.51;98752.91;1723266;81;21101;-71
2022/09/17 01:29:25;;;;;;;9.83;5.78;;;;;;;12.58;80.58;98766.76;1821910;77;20962;-69
2022/09/17 01:31:57;;;;;;;7.25;5.30;;;;;;;12.65;80.43;98767.58;1819031;77;21044;-69
2022/09/17 01:34:38;;;;;;;6.35;5.67;;;;;;;12.73;80.24;98775.36;1810884;78;21148;-70
2022/09/17 01:37:13;;;;;;;6.87;5.53;;;;;;;12.71;80.30;98765.91;1810033;76;21096;-71
2022/09/17 01:40:01;;;;;;;6.90;5.87;;;;;;;12.67;80.31;98756.20;1776954;78;21012;-71
2022/09/17 01:42:55;;;;;;;7.15;4.70;;;;;;;12.68;80.30;98762.34;1816191;77;21107;-69
2022/09/17 01:45:29;;;;;;;7.22;5.95;;;;;;;12.74;80.18;98770.33;1829525;77;21627;-71
2022/09/17 01:48:01;;;;;;;7.37;6.15;;;;;;;12.82;80.00;98763.97;1827601;77;21255;-69
2022/09/17 01:50:32;;;;;;;7.72;5.55;;;;;;;12.83;80.12;98774.14;1828595;76;21027;-69
2022/09/17 01:52:58;;;;;;;8.73;5.58;;;;;;;12.83;80.21;98778.13;1829466;77;21125;-70
2022/09/17 01:55:29;;;;;;;7.75;5.35;;;;;;;12.77;80.24;98779.25;1819039;76;21501;-70
2022/09/17 01:58:09;;;;;;;7.33;5.25;;;;;;;12.79;80.38;98781.20;1758293;80;21060;-69
2022/09/17 02:00:37;;;;;;;6.80;5.45;;;;;;;12.88;80.15;98774.31;1820449;78;21230;-69
2022/09/17 02:03:26;;;;;;;8.28;5.55;;;;;;;12.94;79.82;98771.66;1828762;78;21066;-69
2022/09/17 02:06:08;;;;;;;7.67;5.60;;;;;;;12.93;79.89;98769.20;1802987;78;20972;-69
2022/09/17 02:08:42;;;;;;;7.20;5.78;;;;;;;12.89;80.05;98765.31;1832520;76;21029;-70
2022/09/17 02:11:13;;;;;;;7.30;5.37;;;;;;;12.86;80.13;98766.52;1815102;77;21146;-69
2022/09/17 02:13:57;;;;;;;5.58;5.05;;;;;;;12.92;80.05;98776.88;1812905;78;21154;-68
2022/09/17 02:16:31;;;;;;;10.55;6.00;;;;;;;12.96;79.92;98763.43;1816629;77;21023;-67
2022/09/17 02:19:14;;;;;;;8.63;6.42;;;;;;;12.92;80.09;98763.05;1805231;78;21518;-69
2022/09/17 02:22:06;;;;;;;7.72;6.03;;;;;;;12.90;80.16;98761.11;1801744;77;21079;-68
2022/09/17 02:25:11;;;;;;;6.53;5.47;;;;;;;12.89;80.28;98767.45;1755938;80;21070;-71
2022/09/17 02:27:52;;;;;;;7.80;5.22;;;;;;;12.97;80.24;98773.08;1783053;79;21557;-71
2022/09/17 02:30:18;;;;;;;8.20;5.70;;;;;;;13.04;80.05;98767.23;1819977;78;21168;-69
2022/09/17 02:32:45;;;;;;;7.33;5.62;;;;;;;13.03;80.14;98778.91;1813503;78;21025;-71
2022/09/17 02:35:13;;;;;;;8.88;6.00;;;;;;;13.02;80.21;98770.62;1813656;78;21486;-70
2022/09/17 02:37:41;;;;;;;7.50;4.90;;;;;;;13.00;80.19;98763.35;1804279;78;21111;-69
2022/09/17 02:40:13;;;;;;;10.13;5.62;;;;;;;13.10;80.08;98765.59;1820020;78;21106;-70
2022/09/17 02:43:05;;;;;;;7.58;5.78;;;;;;;13.18;79.87;98755.50;1771416;78;21044;-70
2022/09/17 02:45:45;;;;;;;7.72;5.58;;;;;;;13.21;79.93;98758.25;1812722;78;21053;-72
2022/09/17 02:48:46;;;;;;;9.23;6.40;;;;;;;13.23;79.89;98757.56;1814219;78;21004;-69
2022/09/17 02:51:32;;;;;;;6.85;6.20;;;;;;;13.25;79.84;98758.66;1817125;78;21104;-68
2022/09/17 02:54:28;;;;;;;8.15;5.25;;;;;;;13.26;79.72;98748.31;1816963;78;21947;-69
2022/09/17 02:57:25;;;;;;;6.78;5.70;;;;;;;13.34;79.45;98751.58;1817930;78;21012;-71
2022/09/17 03:00:06;;;;;;;7.78;6.03;;;;;;;13.42;79.18;98739.86;1820059;78;21027;-71
2022/09/17 03:02:42;;;;;;;7.33;6.40;;;;;;;13.43;79.36;98737.52;1814713;78;21023;-69
2022/09/17 03:05:09;;;;;;;6.70;6.10;;;;;;;13.46;79.28;98738.92;1797098;78;21070;-67
2022/09/17 03:07:36;;;;;;;8.85;6.47;;;;;;;13.47;79.10;98733.91;1768488;81;21283;-69
2022/09/17 03:10:05;;;;;;;12.65;5.72;;;;;;;13.46;79.10;98742.93;1803280;79;21087;-70
2022/09/17 03:12:32;;;;;;;6.80;6.15;;;;;;;13.56;78.83;98752.14;1797470;78;21036;-70
2022/09/17 03:14:58;;;;;;;8.40;6.40;;;;;;;13.60;78.74;98757.03;1803183;78;21083;-72
2022/09/17 03:17:25;;;;;;;7.40;6.65;;;;;;;13.54;78.87;98752.02;1801605;78;21072;-70
2022/09/17 03:19:52;;;;;;;6.62;6.00;;;;;;;13.49;79.15;98751.86;1801040;78;21149;-70
2022/09/17 03:22:19;;;;;;;9.55;6.15;;;;;;;13.43;79.31;98755.38;1786844;78;21519;-72
2022/09/17 03:24:45;;;;;;;7.22;6.20;;;;;;;13.38;79.49;98755.98;1800401;78;21050;-69
2022/09/17 03:27:12;;;;;;;7.00;6.30;;;;;;;13.43;79.47;98757.52;1801288;79;21193;-72
2022/09/17 03:29:39;;;;;;;10.68;6.67;;;;;;;13.41;79.65;98753.44;1792573;78;21102;-71
2022/09/17 03:32:06;;;;;;;7.78;6.42;;;;;;;13.40;79.86;98757.12;1815612;77;21762;-72
2022/09/17 03:34:32;;;;;;;8.53;6.67;;;;;;;13.39;79.99;98756.31;1816851;77;21073;-71
2022/09/17 03:36:59;;;;;;;8.80;6.20;;;;;;;13.37;80.13;98753.03;1788681;78;21020;-70
2022/09/17 03:39:25;;;;;;;9.55;6.20;;;;;;;13.44;80.11;98752.99;1751870;79;21069;-69
2022/09/17 03:43:12;;;;;;;10.65;6.37;;;;;;;13.62;79.75;98748.30;1867549;76;28039;-68
2022/09/17 03:45:38;;;;;;;10.03;6.50;;;;;;;13.57;79.79;98760.42;1822394;77;21080;-69
2022/09/17 03:48:04;;;;;;;8.33;7.00;;;;;;;13.57;79.72;98764.95;1817265;78;21188;-69
2022/09/17 03:50:31;;;;;;;8.13;6.65;;;;;;;13.54;79.66;98772.88;1804220;77;20980;-72
2022/09/17 03:52:58;;;;;;;7.10;5.70;;;;;;;13.49;79.87;98778.54;1823840;77;21084;-70
2022/09/17 03:55:24;;;;;;;9.38;6.55;;;;;;;13.50;79.96;98784.16;1826289;78;20997;-71
2022/09/17 03:57:51;;;;;;;8.63;6.90;;;;;;;13.51;79.89;98782.63;1826696;77;20969;-71
2022/09/17 04:00:17;;;;;;;7.60;6.80;;;;;;;13.44;80.07;98771.15;1825434;77;21064;-71
2022/09/17 04:02:44;;;;;;;7.55;6.05;;;;;;;13.36;80.41;98768.20;1822802;77;21312;-68
2022/09/17 04:05:10;;;;;;;8.70;6.08;;;;;;;13.30;80.42;98769.04;1824203;77;21101;-71
2022/09/17 04:07:39;;;;;;;6.22;5.60;;;;;;;13.33;80.40;98783.83;1825074;77;22486;-67
2022/09/17 04:10:07;;;;;;;8.40;6.47;;;;;;;13.36;80.18;98782.05;1817582;77;21533;-72
2022/09/17 04:12:35;;;;;;;8.45;6.45;;;;;;;13.29;80.38;98787.88;1815614;77;21115;-72
2022/09/17 04:15:01;;;;;;;11.78;6.10;;;;;;;13.20;81.06;98787.82;1818485;77;21028;-71
2022/09/17 04:17:29;;;;;;;8.05;6.15;;;;;;;13.15;81.43;98789.27;1801706;77;21038;-71
2022/09/17 04:19:55;;;;;;;7.25;5.92;;;;;;;13.24;81.62;98783.70;1794370;78;21540;-71
2022/09/17 04:22:22;;;;;;;10.80;5.92;;;;;;;13.23;82.04;98789.56;1823623;77;21099;-71
2022/09/17 04:24:48;;;;;;;6.95;6.20;;;;;;;13.18;82.43;98786.17;1824315;78;21219;-71
2022/09/17 04:27:15;;;;;;;6.37;5.87;;;;;;;13.14;82.61;98790.80;1826181;78;21029;-70
2022/09/17 04:29:41;;;;;;;12.95;9.78;;;;;;;13.10;82.87;98789.59;1807720;77;21469;-70
2022/09/17 04:32:08;;;;;;;9.18;6.12;;;;;;;13.17;82.83;98795.21;1811240;77;21068;-71
2022/09/17 04:34:34;;;;;;;7.30;6.42;;;;;;;13.20;82.83;98799.30;1820753;77;21086;-71
2022/09/17 04:37:03;;;;;;;7.83;6.42;;;;;;;13.15;83.03;98807.94;1818015;77;21108;-72
2022/09/17 04:39:30;;;;;;;7.67;6.03;;;;;;;13.11;83.27;98806.69;1825614;77;21627;-71
2022/09/17 04:41:56;;;;;;;7.00;5.20;;;;;;;13.11;83.30;98797.88;1818190;77;21005;-71
2022/09/17 04:44:22;;;;;;;7.28;4.90;;;;;;;13.23;82.81;98796.23;1800378;78;21055;-72
2022/09/17 04:46:49;;;;;;;6.72;4.75;;;;;;;13.27;82.16;98796.12;1786088;77;21068;-72
2022/09/17 04:49:15;;;;;;;5.87;5.25;;;;;;;13.26;81.63;98787.80;1790015;77;21136;-72
2022/09/17 04:51:42;;;;;;;7.28;5.50;;;;;;;13.25;81.68;98790.66;1783949;79;21548;-71
2022/09/17 04:54:08;;;;;;;10.25;4.53;;;;;;;13.24;81.91;98789.04;1813186;79;21061;-72
2022/09/17 04:56:35;;;;;;;6.58;5.35;;;;;;;13.32;81.92;98782.17;1814360;79;20983;-72
2022/09/17 04:59:02;;;;;;;5.83;5.00;;;;;;;13.46;81.84;98777.61;1806247;77;21100;-71
2022/09/17 05:01:29;;;;;;;10.65;5.97;;;;;;;13.48;81.64;98777.73;1811754;77;21192;-70
2022/09/17 05:03:56;;;;;;;6.87;5.72;;;;;;;13.48;81.63;98781.73;1807129;77;21013;-70
2022/09/17 05:06:22;;;;;;;6.85;5.90;;;;;;;13.50;81.53;98781.49;1812712;77;21022;-72
2022/09/17 05:08:50;;;;;;;6.60;6.00;;;;;;;13.52;81.57;98791.44;1809425;79;21085;-71
2022/09/17 05:11:16;;;;;;;6.95;5.95;;;;;;;13.59;81.29;98796.25;1783535;79;21540;-70
2022/09/17 05:13:44;;;;;;;6.40;5.80;;;;;;;13.69;80.79;98800.61;1770820;80;21120;-70
2022/09/17 05:16:10;;;;;;;5.92;5.33;;;;;;;13.67;80.37;98800.53;1764541;79;21058;-71
2022/09/17 05:18:37;;;;;;;7.30;5.95;;;;;;;13.64;80.33;98804.98;1764824;79;21071;-70
2022/09/17 05:21:04;;;;;;;6.42;4.97;;;;;;;13.59;80.21;98803.45;1764133;79;20971;-69
2022/09/17 05:23:30;;;;;;;6.75;5.30;;;;;;;13.57;79.97;98806.31;1764294;81;21105;-71
2022/09/17 05:26:03;;;;;;;7.42;5.37;;;;;;;13.67;79.62;98805.34;1764483;81;21559;-72
2022/09/17 05:28:27;;;;;;;7.12;5.70;;;;;;;13.66;79.27;98804.25;1754741;80;21054;-71
2022/09/17 05:30:59;;;;;;;10.50;6.15;;;;;;;13.60;79.33;98798.39;1749929;80;21577;-69
2022/09/17 05:33:25;;;;;;;8.05;5.50;;;;;;;13.55;79.40;98795.84;1764446;81;21158;-73
2022/09/17 05:35:51;;;;;;;9.78;5.97;;;;;;;13.53;79.50;98797.09;1761072;79;21076;-71
2022/09/17 05:38:18;;;;;;;5.45;4.70;;;;;;;13.60;79.44;98791.72;1761354;81;21151;-73
2022/09/17 05:40:45;;;;;;;6.47;5.00;;;;;;;13.73;78.81;98799.19;1764293;79;21050;-74
2022/09/17 05:43:11;;;;;;;8.88;5.40;;;;;;;13.75;78.56;98790.45;1775459;79;21002;-73
2022/09/17 05:45:38;;;;;;;6.78;5.33;;;;;;;13.76;78.67;98779.25;1777727;80;21022;-73
2022/09/17 05:48:08;;;;;;;6.22;5.42;;;;;;;13.82;78.32;98773.58;1783766;79;21139;-75
2022/09/17 05:50:35;;;;;;;10.65;5.85;;;;;;;13.84;77.99;98781.67;1778949;80;22204;-74
2022/09/17 05:53:06;;;;;;;7.65;5.10;;;;;;;13.89;77.74;98787.20;1784007;79;21005;-74
2022/09/17 05:55:34;;;;;;;7.20;4.97;;;;;;;14.01;77.00;98789.20;1761869;80;21068;-73
2022/09/17 05:58:13;;;;;;;10.58;5.60;;;;;;;14.10;76.55;98798.09;1762834;80;21046;-73
2022/09/17 06:00:40;;;;;;;10.70;5.95;;;;;;;14.11;76.28;98794.89;1763422;81;21002;-74
2022/09/17 06:03:10;;;;;;;8.10;6.33;;;;;;;14.11;76.66;98798.90;1757406;81;21277;-75
2022/09/17 06:05:37;;;;;;;10.60;7.53;;;;;;;14.14;77.01;98805.16;1757351;81;21037;-73
2022/09/17 06:08:04;;;;;;;12.95;7.87;;;;;;;14.19;77.39;98804.50;1744095;81;21065;-73
2022/09/17 06:10:31;;;;;;;9.25;6.70;;;;;;;14.20;77.66;98802.96;1759274;81;21053;-73
2022/09/17 06:12:59;;;;;;;9.95;6.50;;;;;;;14.29;77.61;98809.70;1758273;80;21030;-73
2022/09/17 06:15:25;;;;;;;9.10;6.75;;;;;;;14.34;77.44;98812.52;1768269;81;21110;-74
2022/09/17 06:17:53;;;;;;;11.10;7.42;;;;;;;14.32;77.12;98813.25;1771842;81;21010;-74
2022/09/17 06:20:20;;;;;;;10.45;7.20;;;;;;;14.29;77.00;98822.21;1768729;81;21363;-73
2022/09/17 06:22:46;;;;;;;12.90;7.37;;;;;;;14.23;77.16;98819.06;1760103;80;21097;-73
2022/09/17 06:25:13;;;;;;;9.25;6.83;;;;;;;14.19;77.26;98802.64;1765828;79;21064;-74
2022/09/17 06:27:39;;;;;;;9.23;6.80;;;;;;;14.23;77.09;98799.84;1793181;78;21111;-74
2022/09/17 06:30:08;;;;;;;17.65;10.48;;;;;;;14.29;76.95;98800.34;1751337;81;21010;-81
2022/09/17 06:32:36;;;;;;;19.40;10.68;;;;;;;14.23;77.00;98809.20;1760584;80;20998;-76
2022/09/17 06:35:02;;;;;;;21.65;13.13;;;;;;;14.17;77.06;98808.72;1749396;81;21542;-77
2022/09/17 06:37:30;;;;;;;20.57;12.18;;;;;;;14.13;77.09;98816.34;1748885;81;21081;-75
2022/09/17 06:39:58;;;;;;;14.87;9.60;;;;;;;14.11;76.99;98810.91;1761405;81;21084;-77
2022/09/17 06:42:33;;;;;;;15.32;10.25;;;;;;;14.16;76.61;98810.58;1761774;80;21018;-76
2022/09/17 06:44:59;;;;;;;18.02;10.53;;;;;;;14.25;76.07;98809.80;1757113;80;21034;-75
2022/09/17 06:47:25;;;;;;;20.02;9.73;;;;;;;14.26;75.97;98811.97;1775467;79;21057;-77
2022/09/17 06:49:53;;;;;;;14.45;9.38;;;;;;;14.27;75.66;98814.41;1764204;81;21034;-79
2022/09/17 06:52:20;;;;;;;17.62;8.83;;;;;;;14.28;75.21;98813.39;1759908;81;21062;-79
2022/09/17 06:54:46;;;;;;;10.78;7.85;;;;;;;14.28;75.11;98817.39;1757400;80;21073;-76
2022/09/17 06:57:13;;;;;;;12.25;7.08;;;;;;;14.26;74.82;98820.80;1757380;80;21073;-78
2022/09/17 06:59:39;;;;;;;12.13;8.10;;;;;;;14.31;74.44;98820.14;1754198;80;21098;-79
2022/09/17 07:02:07;;;;;;;11.73;7.90;;;;;;;14.41;74.43;98811.66;1758690;79;21027;-79
2022/09/17 07:04:34;;;;;;;13.50;6.95;;;;;;;14.43;74.22;98805.08;1756266;80;21118;-78
2022/09/17 07:07:01;;;;;;;13.85;7.85;;;;;;;14.46;73.98;98803.82;1768163;79;21514;-78
2022/09/17 07:09:27;;;;;;;11.93;7.90;;;;;;;14.47;74.08;98810.81;1756011;80;21007;-73
2022/09/17 07:11:54;;;;;;;13.68;7.10;;;;;;;14.50;74.15;98814.38;1755738;79;20991;-76
2022/09/17 07:14:23;;;;;;;14.63;6.92;;;;;;;14.54;74.19;98812.91;1819989;77;21514;-75
2022/09/17 07:16:49;;;;;;;10.03;6.58;;;;;;;14.58;74.06;98814.13;1794899;77;21106;-76
2022/09/17 07:19:17;;;;;;;9.43;7.30;;;;;;;14.69;74.01;98820.13;1803076;77;21038;-75
2022/09/17 07:21:44;;;;;;;9.73;7.05;;;;;;;14.84;73.90;98819.00;1809343;77;21010;-75
2022/09/17 07:24:10;;;;;;;7.83;6.62;;;;;;;14.82;73.64;98806.37;1805291;77;21024;-76
2022/09/17 07:26:36;;;;;;;8.98;6.70;;;;;;;14.87;73.55;98803.34;1811756;77;21517;-75
2022/09/17 07:29:03;;;;;;;9.90;5.95;;;;;;;14.90;73.25;98810.09;1800094;77;21122;-76
2022/09/17 07:31:30;;;;;;;8.60;6.92;;;;;;;14.92;73.13;98815.52;1810316;79;21033;-75
2022/09/17 07:33:58;;;;;;;31.37;17.52;;;;;;;14.94;72.90;98812.10;1812958;77;21041;-75
2022/09/17 07:36:24;;;;;;;48.25;24.30;;;;;;;14.96;72.48;98807.88;1807905;77;21054;-74
2022/09/17 07:38:51;;;;;;;43.42;21.52;;;;;;;14.96;72.58;98819.91;1787267;77;22211;-74
2022/09/17 07:41:17;;;;;;;29.52;17.07;;;;;;;14.98;72.35;98826.39;1813971;77;21239;-73
2022/09/17 07:43:44;;;;;;;30.17;16.62;;;;;;;15.12;72.30;98822.55;1813244;77;20994;-73
2022/09/17 07:46:16;;;;;;;37.50;18.17;;;;;;;15.20;71.88;98816.09;1822977;77;21528;-72
2022/09/17 07:48:42;;;;;;;41.73;19.70;;;;;;;15.22;71.97;98826.89;1825684;78;21017;-74
2022/09/17 07:51:21;;;;;;;33.65;18.45;;;;;;;15.26;72.03;98824.07;1808702;78;20982;-72
2022/09/17 07:53:52;;;;;;;32.28;18.20;;;;;;;15.31;71.30;98822.06;1806757;78;21094;-74
2022/09/17 07:56:18;;;;;;;34.83;16.52;;;;;;;15.33;71.40;98810.08;1825518;78;21494;-72
2022/09/17 07:58:45;;;;;;;34.08;16.60;;;;;;;15.39;71.04;98808.38;1824860;78;21091;-74
2022/09/17 08:01:14;;;;;;;32.85;16.10;;;;;;;15.45;70.85;98809.35;1810984;78;21018;-75
2022/09/17 08:03:40;;;;;;;22.15;13.88;;;;;;;15.51;70.75;98804.44;1803684;78;21009;-74
2022/09/17 08:06:11;;;;;;;28.98;14.35;;;;;;;15.57;69.92;98802.73;1825533;78;21858;-73
2022/09/17 08:08:39;;;;;;;23.52;12.63;;;;;;;15.59;69.84;98806.00;1825870;78;20993;-74
2022/09/17 08:11:10;;;;;;;15.05;10.28;;;;;;;15.59;69.48;98804.17;1823530;78;21627;-73
2022/09/17 08:13:37;;;;;;;12.03;7.97;;;;;;;15.62;69.20;98817.09;1801847;78;21024;-74
2022/09/17 08:16:06;;;;;;;15.35;8.55;;;;;;;15.62;68.37;98808.25;1825911;78;20990;-73
2022/09/17 08:18:34;;;;;;;14.93;8.25;;;;;;;15.60;68.47;98810.33;1816728;77;21778;-72
2022/09/17 08:21:03;;;;;;;9.80;6.70;;;;;;;15.57;68.73;98813.44;1825634;78;21038;-73
2022/09/17 08:23:30;;;;;;;13.15;7.20;;;;;;;15.53;69.03;98813.91;1825363;78;21072;-75
2022/09/17 08:26:00;;;;;;;12.45;7.03;;;;;;;15.52;69.11;98812.25;1821404;78;21016;-74
2022/09/17 08:28:29;;;;;;;13.98;7.22;;;;;;;15.53;69.15;98805.06;1815465;78;21022;-74
2022/09/17 08:31:02;;;;;;;12.37;6.20;;;;;;;15.55;69.09;98812.35;1803723;78;21118;-73
2022/09/17 08:33:33;;;;;;;12.23;5.90;;;;;;;15.57;68.86;98805.41;1826134;78;21486;-72
2022/09/17 08:36:00;;;;;;;11.12;6.25;;;;;;;15.60;68.79;98812.48;1812474;78;21083;-74
2022/09/17 08:38:28;;;;;;;10.58;5.75;;;;;;;15.59;68.73;98812.20;1816439;78;21017;-73
2022/09/17 08:41:12;;;;;;;7.92;5.65;;;;;;;15.59;68.67;98803.33;1813041;78;21015;-74
2022/09/17 08:44:16;;;;;;;9.98;6.45;;;;;;;15.62;68.89;98808.25;1791058;78;21102;-73
2022/09/17 08:46:47;;;;;;;12.23;7.25;;;;;;;15.65;69.04;98807.81;1810413;78;21009;-74
2022/09/17 08:49:25;;;;;;;7.15;5.97;;;;;;;15.67;69.15;98804.39;1808095;77;21084;-74
2022/09/17 08:52:20;;;;;;;10.05;6.90;;;;;;;15.68;69.30;98801.48;1816407;77;20982;-75
2022/09/17 08:55:17;;;;;;;8.15;5.90;;;;;;;15.70;69.52;98803.42;1819404;78;21009;-75
2022/09/17 08:58:12;;;;;;;7.17;6.03;;;;;;;15.72;69.53;98797.81;1817847;77;21187;-74
2022/09/17 09:00:44;;;;;;;8.65;6.97;;;;;;;15.75;69.64;98796.60;1813611;77;21030;-73
2022/09/17 09:03:46;;;;;;;10.75;6.40;;;;;;;15.88;69.74;98798.59;1815710;77;21060;-74
2022/09/17 09:06:14;;;;;;;13.05;7.22;;;;;;;16.02;69.68;98805.12;1818045;77;21026;-74
2022/09/17 09:08:44;;;;;;;9.83;7.10;;;;;;;16.09;69.71;98809.88;1816942;77;21002;-73
2022/09/17 09:11:15;;;;;;;12.00;7.10;;;;;;;16.17;69.61;98822.11;1814891;77;21081;-75
2022/09/17 09:13:47;;;;;;;8.48;6.67;;;;;;;16.21;69.59;98824.12;1821155;77;21048;-76
2022/09/17 09:16:24;;;;;;;7.05;6.35;;;;;;;16.28;69.62;98820.84;1820036;78;21104;-74
2022/09/17 09:18:57;;;;;;;9.63;6.20;;;;;;;16.36;69.70;98808.98;1811108;77;21045;-75
2022/09/17 09:21:38;;;;;;;8.20;6.20;;;;;;;16.45;69.58;98801.41;1815024;78;21020;-74
2022/09/17 09:24:20;;;;;;;7.00;5.75;;;;;;;16.50;69.18;98814.95;1804238;77;21084;-73
2022/09/17 09:26:50;;;;;;;7.53;5.20;;;;;;;16.56;68.52;98811.35;1818161;77;21009;-74
2022/09/17 09:29:37;;;;;;;7.25;5.58;;;;;;;16.61;68.48;98812.83;1811618;77;21003;-73
2022/09/17 09:32:21;;;;;;;8.00;5.05;;;;;;;16.67;68.01;98811.09;1805194;77;21043;-72
2022/09/17 09:34:47;;;;;;;6.53;5.55;;;;;;;16.70;67.74;98818.66;1792854;77;21060;-71
2022/09/17 09:37:27;;;;;;;7.62;6.47;;;;;;;16.70;67.58;98825.36;1812981;77;21016;-73
2022/09/17 09:39:54;;;;;;;5.87;5.28;;;;;;;16.71;67.59;98837.21;1813602;77;21072;-72
2022/09/17 09:42:32;;;;;;;6.15;5.50;;;;;;;16.70;67.40;98830.73;1817348;77;21056;-72
2022/09/17 09:45:03;;;;;;;6.80;5.72;;;;;;;16.66;67.53;98829.02;1812653;77;21005;-75
2022/09/17 09:47:55;;;;;;;6.42;5.75;;;;;;;16.61;67.76;98830.26;1812914;77;21033;-74
2022/09/17 09:50:39;;;;;;;6.92;5.72;;;;;;;16.55;68.09;98833.02;1819742;77;21206;-74
2022/09/17 09:53:35;;;;;;;6.30;5.65;;;;;;;16.46;68.41;98821.30;1801854;78;21020;-72
2022/09/17 09:56:22;;;;;;;6.65;5.35;;;;;;;16.40;68.58;98822.72;1802262;77;21011;-73
2022/09/17 09:58:49;;;;;;;6.53;5.58;;;;;;;16.38;69.10;98838.21;1819426;77;21160;-73
2022/09/17 10:01:21;;;;;;;9.78;5.70;;;;;;;16.36;69.35;98829.58;1819827;77;21529;-72
2022/09/17 10:03:51;;;;;;;9.95;5.60;;;;;;;16.37;69.50;98836.06;1819631;77;21268;-75
2022/09/17 10:06:18;;;;;;;7.80;6.10;;;;;;;16.46;69.68;98836.03;1817395;77;21039;-72
2022/09/17 10:08:57;;;;;;;7.67;5.62;;;;;;;16.55;69.43;98836.52;1820918;77;21211;-73
2022/09/17 10:11:29;;;;;;;7.62;5.97;;;;;;;16.55;69.62;98827.66;1780725;79;21040;-73
2022/09/17 10:14:23;;;;;;;8.75;5.95;;;;;;;16.57;69.88;98826.91;1753407;80;21049;-73
2022/09/17 10:16:52;;;;;;;8.43;5.87;;;;;;;16.60;69.60;98833.16;1752295;80;22068;-73
2022/09/17 10:19:28;;;;;;;8.45;6.37;;;;;;;16.64;69.39;98837.83;1713187;80;21478;-77
2022/09/17 10:21:52;;;;;;;8.53;6.05;;;;;;;16.67;69.24;98825.31;1743257;81;21021;-76
2022/09/17 10:24:24;;;;;;;9.83;6.70;;;;;;;16.70;69.21;98827.52;1762310;80;21068;-76
2022/09/17 10:26:51;;;;;;;7.90;5.78;;;;;;;16.76;69.26;98820.95;1759496;80;21050;-76
2022/09/17 10:29:19;;;;;;;6.25;5.08;;;;;;;16.79;69.00;98815.13;1764595;80;21231;-76
2022/09/17 10:31:53;;;;;;;5.85;5.00;;;;;;;16.85;68.93;98821.75;1766665;80;21018;-77
2022/09/17 10:34:32;;;;;;;7.33;5.58;;;;;;;16.91;68.76;98833.42;1776958;80;21002;-77
2022/09/17 10:36:58;;;;;;;6.58;5.65;;;;;;;16.98;68.55;98825.25;1766401;79;21069;-78
2022/09/17 10:39:36;;;;;;;9.43;5.33;;;;;;;16.99;68.59;98817.51;1776382;79;21069;-76
2022/09/17 10:42:12;;;;;;;11.28;9.65;;;;;;;16.96;68.73;98813.94;1774564;79;21350;-76
2022/09/17 10:44:56;;;;;;;9.68;6.60;;;;;;;16.90;68.50;98821.88;1762909;79;21560;-78
2022/09/17 10:47:28;;;;;;;;;;;;;;;16.84;68.83;98824.66;1764532;81;21042;-77
2022/09/17 10:50:04;;;;;;;10.13;6.17;;;;;;;16.79;68.72;98831.23;1759656;80;20204;-77
2022/09/17 10:52:36;;;;;;;8.08;5.87;;;;;;;16.70;68.18;98821.34;1750991;79;21056;-77
2022/09/17 10:55:16;;;;;;;6.33;4.95;;;;;;;16.61;68.24;98829.42;1741699;80;21076;-76
2022/09/17 10:58:08;;;;;;;5.85;5.20;;;;;;;16.54;68.11;98832.22;1756465;81;21530;-77
2022/09/17 11:01:35;;;;;;;6.40;5.75;;;;;;;16.48;68.52;98834.48;1764232;80;21094;-75
2022/09/17 11:04:19;;;;;;;6.40;5.53;;;;;;;16.44;69.59;98833.30;1763713;80;20996;-78
2022/09/17 11:07:41;;;;;;;7.80;5.47;;;;;;;16.38;70.77;98820.28;1737732;81;21584;-73
2022/09/17 11:10:25;;;;;;;6.17;5.12;;;;;;;16.52;72.00;98808.84;1732409;81;21354;-78
2022/09/17 11:13:10;;;;;;;7.05;5.20;;;;;;;16.59;72.69;98797.50;1744484;79;21069;-75
2022/09/17 11:15:48;;;;;;;6.87;5.53;;;;;;;16.62;73.49;98799.70;1748903;80;21086;-77
2022/09/17 11:18:45;;;;;;;7.03;5.67;;;;;;;16.66;74.38;98804.89;1750854;80;21576;-77
2022/09/17 11:21:33;;;;;;;8.70;5.53;;;;;;;16.69;75.15;98804.45;1748662;79;21007;-79
2022/09/17 11:24:27;;;;;;;5.25;4.60;;;;;;;16.71;75.69;98803.69;1748504;81;21122;-79
2022/09/17 11:27:14;;;;;;;7.40;6.05;;;;;;;16.81;75.74;98807.14;1762946;79;20999;-78
2022/09/17 11:30:11;;;;;;;7.47;6.00;;;;;;;16.90;75.52;98805.78;1746826;81;21106;-79
2022/09/17 11:33:20;;;;;;;9.73;6.67;;;;;;;16.88;76.09;98804.36;1755068;79;21042;-78
2022/09/17 11:35:58;;;;;;;10.55;7.35;;;;;;;16.85;76.43;98796.80;1755608;80;21570;-79
2022/09/17 11:38:42;;;;;;;9.65;7.22;;;;;;;16.83;76.69;98793.00;1753373;80;21213;-77
2022/09/17 11:41:22;;;;;;;10.93;6.55;;;;;;;16.86;77.43;98787.19;1758915;79;21138;-80
2022/09/17 11:44:19;;;;;;;8.83;7.85;;;;;;;16.96;77.73;98782.58;1752391;81;21026;-80
2022/09/17 11:46:57;;;;;;;13.22;9.95;;;;;;;16.94;78.04;98769.92;1694628;81;21048;-81
2022/09/17 11:49:31;;;;;;;9.90;8.35;;;;;;;16.91;78.46;98765.02;1779357;80;21038;-79
2022/09/17 11:52:02;;;;;;;9.83;7.83;;;;;;;16.87;78.85;98753.13;1734389;81;21156;-83
2022/09/17 11:54:58;;;;;;;9.80;8.13;;;;;;;16.89;79.05;98755.86;1755072;81;21060;-83
2022/09/17 11:57:31;;;;;;;10.82;8.53;;;;;;;16.95;78.35;98766.17;1757862;80;21019;-78
2022/09/17 12:00:04;;;;;;;11.55;8.88;;;;;;;16.86;78.08;98771.09;1792931;77;20978;-80
2022/09/17 12:02:41;;;;;;;12.58;9.08;;;;;;;16.75;77.83;98770.52;1797339;78;21659;-81